Time;durP1;ratioP1;P1;durP2;ratioP2;P2;SDS_P1;SDS_P2;PMS_P1;PMS_P2;Temp;Humidity;BMP_temperature;BMP_pressure;BME280_temperature;BME280_humidity;BME280_pressure;Samples;Min_cycle;Max_cycle;Signal;HPM_P1;HPM_P2
2022/01/09 00:00:11;;;;;;;8.13;4.35;;;;;;;-0.97;60.82;101211.33;1783345;80;21428;-78
2022/01/09 00:02:40;;;;;;;9.03;4.00;;;;;;;-0.96;60.87;101213.03;1783518;80;20931;-80
2022/01/09 00:05:09;;;;;;;9.43;4.00;;;;;;;-0.98;60.84;101216.88;1783486;80;22007;-79
2022/01/09 00:07:35;;;;;;;6.85;3.45;;;;;;;-0.99;61.00;101214.33;1783661;80;21356;-79
2022/01/09 00:10:03;;;;;;;7.17;4.10;;;;;;;-1.01;61.11;101215.62;1783790;80;20900;-80
2022/01/09 00:12:31;;;;;;;7.55;3.47;;;;;;;-1.04;61.31;101216.92;1783499;80;20971;-79
2022/01/09 00:14:58;;;;;;;7.00;3.75;;;;;;;-1.07;61.51;101207.91;1783717;80;20841;-79
2022/01/09 00:17:25;;;;;;;10.63;5.10;;;;;;;-1.05;61.63;101207.03;1783730;80;21107;-79
2022/01/09 00:19:51;;;;;;;9.55;4.70;;;;;;;-1.05;61.74;101203.17;1783411;80;20886;-80
2022/01/09 00:22:26;;;;;;;8.63;4.58;;;;;;;-1.01;61.92;101201.89;1783743;80;20848;-79
2022/01/09 00:24:48;;;;;;;9.45;4.35;;;;;;;-1.00;62.02;101190.73;1752637;80;20893;-79
2022/01/09 00:27:14;;;;;;;9.73;4.87;;;;;;;-0.95;62.14;101184.72;1783460;80;20917;-79
2022/01/09 00:29:41;;;;;;;8.88;4.17;;;;;;;-0.92;62.17;101185.13;1783458;80;22000;-78
2022/01/09 00:32:08;;;;;;;8.23;4.08;;;;;;;-0.90;62.34;101180.39;1783592;80;20916;-81
2022/01/09 00:34:36;;;;;;;10.20;5.17;;;;;;;-0.90;62.55;101177.82;1783370;80;20884;-79
2022/01/09 00:37:04;;;;;;;8.33;5.10;;;;;;;-0.93;62.79;101170.13;1784961;80;20889;-77
2022/01/09 00:39:31;;;;;;;10.58;5.80;;;;;;;-0.95;63.06;101169.27;1784510;80;21433;-76
2022/01/09 00:41:58;;;;;;;9.65;5.20;;;;;;;-0.96;63.26;101170.11;1784116;80;21098;-78
2022/01/09 00:44:25;;;;;;;9.40;4.87;;;;;;;-0.98;63.48;101165.40;1783663;80;20919;-77
2022/01/09 00:46:53;;;;;;;6.10;4.78;;;;;;;-0.99;63.61;101162.41;1783792;80;20979;-76
2022/01/09 00:49:19;;;;;;;8.78;4.62;;;;;;;-1.02;63.84;101158.58;1783552;80;20995;-78
2022/01/09 00:51:47;;;;;;;11.60;4.17;;;;;;;-1.06;63.85;101153.86;1783528;80;20880;-78
2022/01/09 00:54:13;;;;;;;5.17;3.45;;;;;;;-1.08;64.00;101144.00;1783487;80;21456;-77
2022/01/09 00:56:40;;;;;;;9.05;4.58;;;;;;;-1.10;64.24;101139.28;1783672;80;20943;-77
2022/01/09 00:59:07;;;;;;;7.97;4.33;;;;;;;-1.10;64.39;101134.14;1783552;80;20880;-76
2022/01/09 01:01:34;;;;;;;8.40;4.20;;;;;;;-1.09;64.56;101141.42;1783969;80;21337;-76
2022/01/09 01:04:03;;;;;;;9.68;4.22;;;;;;;-1.08;64.74;101128.55;1783407;80;21417;-76
2022/01/09 01:06:30;;;;;;;12.00;4.53;;;;;;;-1.07;64.92;101124.26;1783374;80;21152;-75
2022/01/09 01:08:57;;;;;;;10.40;4.78;;;;;;;-1.07;65.15;101120.40;1783752;80;20857;-75
2022/01/09 01:11:23;;;;;;;6.87;4.90;;;;;;;-1.07;65.42;101104.95;1783398;79;21501;-76
2022/01/09 01:13:50;;;;;;;10.58;4.97;;;;;;;-1.09;65.76;101097.67;1783858;80;20931;-77
2022/01/09 01:16:17;;;;;;;8.03;5.37;;;;;;;-1.09;66.06;101084.80;1783529;80;20912;-76
2022/01/09 01:18:46;;;;;;;9.38;4.90;;;;;;;-1.10;66.33;101080.09;1783427;80;21153;-75
2022/01/09 01:21:14;;;;;;;8.03;4.95;;;;;;;-1.11;66.58;101080.09;1782909;80;21378;-77
2022/01/09 01:23:41;;;;;;;11.05;5.20;;;;;;;-1.13;66.86;101075.41;1783945;80;20960;-76
2022/01/09 01:26:08;;;;;;;10.05;5.25;;;;;;;-1.17;67.05;101068.13;1783528;80;20896;-76
2022/01/09 01:28:35;;;;;;;8.68;5.30;;;;;;;-1.18;67.15;101061.25;1783544;80;20924;-77
2022/01/09 01:31:02;;;;;;;10.18;5.65;;;;;;;-1.18;67.29;101058.67;1783485;80;21995;-77
2022/01/09 01:33:29;;;;;;;7.00;4.53;;;;;;;-1.19;67.33;101048.41;1783532;80;20963;-75
2022/01/09 01:35:55;;;;;;;9.58;4.78;;;;;;;-1.17;67.67;101049.27;1783540;80;20947;-78
2022/01/09 01:38:22;;;;;;;10.98;6.08;;;;;;;-1.15;67.78;101065.55;1783791;80;20896;-78
2022/01/09 01:40:50;;;;;;;12.10;6.83;;;;;;;-1.16;67.78;101059.53;1783410;80;20916;-78
2022/01/09 01:43:17;;;;;;;14.05;6.83;;;;;;;-1.17;68.13;101057.83;1783866;80;21518;-77
2022/01/09 01:45:44;;;;;;;9.38;5.40;;;;;;;-1.15;68.31;101065.55;1783508;80;20967;-78
2022/01/09 01:48:11;;;;;;;13.75;7.40;;;;;;;-1.13;68.36;101060.82;1783642;80;20924;-77
2022/01/09 01:50:38;;;;;;;11.57;6.05;;;;;;;-1.12;68.48;101057.37;1783507;80;20932;-77
2022/01/09 01:53:07;;;;;;;13.35;6.55;;;;;;;-1.08;68.56;101046.20;1783419;80;20911;-77
2022/01/09 01:55:37;;;;;;;13.98;6.35;;;;;;;-1.06;68.55;101044.92;1776003;80;21165;-77
2022/01/09 01:58:04;;;;;;;10.35;6.25;;;;;;;-1.06;68.60;101034.63;1775607;80;21425;-77
2022/01/09 02:00:32;;;;;;;11.83;7.50;;;;;;;-1.08;68.73;101035.91;1775175;80;21465;-76
2022/01/09 02:03:00;;;;;;;17.12;7.95;;;;;;;-1.10;68.81;101029.91;1777201;80;20980;-74
2022/01/09 02:05:26;;;;;;;14.03;6.97;;;;;;;-1.10;69.02;101022.19;1775630;80;21485;-76
2022/01/09 02:07:53;;;;;;;16.93;6.87;;;;;;;-1.07;69.28;101013.59;1775439;80;21108;-76
2022/01/09 02:10:22;;;;;;;16.23;7.67;;;;;;;-1.08;69.40;101004.17;1775120;80;21497;-76
2022/01/09 02:12:51;;;;;;;11.40;6.65;;;;;;;-1.06;69.59;101007.16;1775233;80;21090;-76
2022/01/09 02:15:43;;;;;;;17.45;7.60;;;;;;;-1.02;69.94;101005.44;1775392;80;20932;-76
2022/01/09 02:18:18;;;;;;;21.17;9.95;;;;;;;-0.99;69.93;101005.41;1775424;80;20920;-76
2022/01/09 02:20:45;;;;;;;17.60;8.38;;;;;;;-0.97;69.96;101007.98;1775460;80;21159;-77
2022/01/09 02:23:13;;;;;;;15.23;7.30;;;;;;;-0.96;69.97;100993.78;1775182;80;20960;-77
2022/01/09 02:25:39;;;;;;;14.98;8.15;;;;;;;-0.92;70.31;100992.91;1775423;80;20873;-77
2022/01/09 02:28:07;;;;;;;15.23;9.10;;;;;;;-0.92;70.33;100994.19;1775213;80;20940;-76
2022/01/09 02:30:34;;;;;;;11.48;6.95;;;;;;;-0.92;70.49;100988.20;1775543;80;20913;-77
2022/01/09 02:33:05;;;;;;;12.18;6.12;;;;;;;-0.91;70.87;100983.05;1775212;80;21102;-76
2022/01/09 02:35:32;;;;;;;17.82;9.00;;;;;;;-0.91;71.19;100979.19;1775391;80;20904;-76
2022/01/09 02:37:59;;;;;;;16.10;7.92;;;;;;;-0.92;71.31;100977.91;1775188;80;20932;-76
2022/01/09 02:40:25;;;;;;;16.23;8.43;;;;;;;-0.93;71.51;100979.63;1775457;80;20986;-77
2022/01/09 02:42:53;;;;;;;15.85;8.65;;;;;;;-0.93;71.71;100974.92;1775134;80;20905;-77
2022/01/09 02:45:22;;;;;;;19.60;8.85;;;;;;;-0.92;71.88;100972.31;1775044;80;21207;-76
2022/01/09 02:47:50;;;;;;;16.73;8.83;;;;;;;-0.89;72.00;100963.30;1775357;80;20877;-77
2022/01/09 02:52:58;;;;;;;15.13;7.45;;;;;;;-0.84;72.13;100967.12;1775528;80;21007;-76
2022/01/09 02:55:24;;;;;;;16.27;8.63;;;;;;;-0.85;72.29;100958.52;1775224;80;20948;-75
2022/01/09 02:57:53;;;;;;;20.10;10.15;;;;;;;-0.84;72.68;100961.53;1775493;80;21792;-76
2022/01/09 03:00:27;;;;;;;17.17;9.45;;;;;;;-0.86;72.70;100953.41;1775389;80;20976;-76
2022/01/09 03:02:53;;;;;;;17.02;7.70;;;;;;;-0.86;72.84;100950.39;1774972;80;20980;-77
2022/01/09 03:05:20;;;;;;;19.48;7.72;;;;;;;-0.88;72.95;100955.14;1775458;80;20940;-77
2022/01/09 03:07:48;;;;;;;16.30;8.15;;;;;;;-0.90;73.10;100946.13;1775099;80;21610;-77
2022/01/09 03:10:17;;;;;;;23.00;9.53;;;;;;;-0.93;73.13;100947.89;1775174;80;21504;-78
2022/01/09 03:12:46;;;;;;;17.10;8.93;;;;;;;-0.94;73.19;100943.16;1775226;80;20972;-76
2022/01/09 03:15:13;;;;;;;14.43;7.12;;;;;;;-0.94;73.23;100939.30;1775073;80;21023;-76
2022/01/09 03:17:40;;;;;;;13.93;7.42;;;;;;;-0.93;73.20;100936.31;1775429;80;21465;-76
2022/01/09 03:20:11;;;;;;;14.65;8.05;;;;;;;-0.94;73.25;100926.42;1775237;80;20889;-75
2022/01/09 03:22:38;;;;;;;18.92;8.30;;;;;;;-0.92;73.28;100917.41;1775575;80;21150;-75
2022/01/09 03:25:07;;;;;;;17.02;7.90;;;;;;;-0.93;73.43;100916.56;1775156;80;20924;-76
2022/01/09 03:27:34;;;;;;;20.25;9.45;;;;;;;-0.90;73.39;100918.25;1777040;80;20920;-76
2022/01/09 03:30:01;;;;;;;15.48;9.03;;;;;;;-0.88;73.49;100918.66;1775837;80;21019;-76
2022/01/09 03:32:28;;;;;;;18.23;9.10;;;;;;;-0.87;73.39;100919.09;1775621;80;20857;-77
2022/01/09 03:34:55;;;;;;;14.63;7.78;;;;;;;-0.85;73.40;100916.05;1775226;80;21728;-78
2022/01/09 03:37:22;;;;;;;16.30;8.53;;;;;;;-0.83;73.47;100909.61;1775150;80;20975;-76
2022/01/09 03:39:49;;;;;;;19.05;9.18;;;;;;;-0.78;73.56;100918.58;1775277;80;21011;-77
2022/01/09 03:42:16;;;;;;;16.23;8.30;;;;;;;-0.78;73.67;100903.12;1775429;80;20877;-78
2022/01/09 03:44:42;;;;;;;21.23;10.03;;;;;;;-0.78;73.59;100906.99;1775249;80;20968;-78
2022/01/09 03:47:09;;;;;;;14.07;8.50;;;;;;;-0.79;73.77;100908.72;1775552;80;22212;-77
2022/01/09 03:49:37;;;;;;;18.00;9.08;;;;;;;-0.77;73.87;100917.73;1774913;80;20845;-78
2022/01/09 03:52:05;;;;;;;15.05;8.60;;;;;;;-0.78;73.78;100894.11;1775366;80;20995;-78
2022/01/09 03:54:32;;;;;;;12.93;8.15;;;;;;;-0.78;73.87;100888.53;1775569;80;21382;-77
2022/01/09 03:56:59;;;;;;;10.82;7.28;;;;;;;-0.75;73.89;100899.26;1780921;80;20877;-78
2022/01/09 03:59:25;;;;;;;17.52;9.93;;;;;;;-0.75;73.87;100895.39;1781000;80;21794;-77
2022/01/09 04:01:52;;;;;;;16.65;9.23;;;;;;;-0.75;73.80;100901.83;1780823;80;20849;-76
2022/01/09 04:04:19;;;;;;;13.58;7.20;;;;;;;-0.75;73.79;100898.81;1780981;80;21011;-76
2022/01/09 04:06:49;;;;;;;15.23;8.28;;;;;;;-0.76;73.73;100893.23;1780802;80;20897;-76
2022/01/09 04:09:36;;;;;;;15.05;7.15;;;;;;;-0.77;73.73;100881.68;1781048;80;20865;-76
2022/01/09 04:11:51;;;;;;;12.73;8.73;;;;;;;-0.78;73.71;100868.37;1778198;80;21191;-76
2022/01/09 04:14:19;;;;;;;12.90;7.42;;;;;;;-0.80;73.74;100874.84;1780820;80;21315;-75
2022/01/09 04:16:46;;;;;;;18.02;8.38;;;;;;;-0.80;73.65;100877.41;1781118;80;21017;-75
2022/01/09 04:19:13;;;;;;;16.40;9.40;;;;;;;-0.80;73.63;100872.67;1781293;80;20912;-76
2022/01/09 04:21:41;;;;;;;16.93;7.95;;;;;;;-0.79;73.57;100866.67;1780952;80;21401;-77
2022/01/09 04:24:09;;;;;;;11.63;6.55;;;;;;;-0.77;73.53;100861.08;1781275;80;21093;-76
2022/01/09 04:26:37;;;;;;;10.53;7.50;;;;;;;-0.77;73.40;100873.95;1781098;80;20888;-74
2022/01/09 04:29:05;;;;;;;17.05;7.05;;;;;;;-0.78;73.27;100855.05;1781053;80;20963;-75
2022/01/09 04:31:32;;;;;;;16.40;6.35;;;;;;;-0.80;73.24;100858.52;1780931;80;20972;-74
2022/01/09 04:33:59;;;;;;;15.03;7.70;;;;;;;-0.82;73.19;100867.97;1781295;80;21326;-77
2022/01/09 04:36:26;;;;;;;15.13;7.03;;;;;;;-0.84;73.15;100862.42;1781055;80;21097;-78
2022/01/09 04:38:54;;;;;;;12.50;6.85;;;;;;;-0.85;73.10;100863.70;1782355;80;20882;-77
2022/01/09 04:41:21;;;;;;;12.50;6.97;;;;;;;-0.85;73.14;100876.58;1783451;80;20904;-76
2022/01/09 04:43:49;;;;;;;14.07;7.17;;;;;;;-0.84;73.11;100861.57;1784382;80;20896;-78
2022/01/09 04:46:23;;;;;;;9.30;6.58;;;;;;;-0.81;73.10;100855.09;1782308;80;20920;-77
2022/01/09 04:48:46;;;;;;;10.50;5.85;;;;;;;-0.82;73.04;100853.41;1780266;80;21134;-73
2022/01/09 04:51:15;;;;;;;11.30;6.05;;;;;;;-0.81;73.02;100850.39;1781410;80;20940;-75
2022/01/09 04:53:41;;;;;;;9.88;6.95;;;;;;;-0.81;72.99;100844.80;1781965;80;20900;-74
2022/01/09 04:56:08;;;;;;;10.43;5.75;;;;;;;-0.81;72.91;100844.80;1783131;80;20982;-77
2022/01/09 04:58:35;;;;;;;10.05;5.83;;;;;;;-0.82;72.88;100843.10;1783937;80;20829;-76
2022/01/09 05:01:02;;;;;;;17.98;6.20;;;;;;;-0.83;72.87;100834.94;1783978;79;21500;-75
2022/01/09 05:03:29;;;;;;;9.25;5.92;;;;;;;-0.82;72.92;100844.39;1783866;80;20927;-74
2022/01/09 05:05:55;;;;;;;11.33;6.30;;;;;;;-0.81;72.90;100843.95;1783783;80;20970;-76
2022/01/09 05:08:23;;;;;;;8.53;5.53;;;;;;;-0.78;72.90;100854.20;1783834;79;21023;-76
2022/01/09 05:10:49;;;;;;;10.00;6.15;;;;;;;-0.76;72.80;100858.47;1783789;80;20922;-77
2022/01/09 05:13:16;;;;;;;9.73;6.53;;;;;;;-0.75;72.80;100849.89;1783716;79;21571;-76
2022/01/09 05:15:44;;;;;;;10.18;5.08;;;;;;;-0.70;72.71;100849.84;1783780;80;21055;-77
2022/01/09 05:18:14;;;;;;;9.23;6.55;;;;;;;-0.66;72.56;100852.38;1783821;79;20936;-77
2022/01/09 05:20:40;;;;;;;8.28;5.22;;;;;;;-0.64;72.37;100856.23;1783759;79;20923;-80
2022/01/09 05:23:07;;;;;;;9.00;4.58;;;;;;;-0.64;72.17;100850.64;1783707;80;20982;-77
2022/01/09 05:25:35;;;;;;;9.25;4.62;;;;;;;-0.65;72.09;100848.91;1783811;79;21193;-78
2022/01/09 05:28:01;;;;;;;6.62;4.67;;;;;;;-0.64;72.09;100843.35;1783903;79;20939;-79
2022/01/09 05:30:28;;;;;;;7.58;4.62;;;;;;;-0.64;72.18;100839.49;1784020;80;21358;-78
2022/01/09 05:32:55;;;;;;;10.13;5.15;;;;;;;-0.59;72.05;100835.58;1783768;79;20884;-77
2022/01/09 05:35:23;;;;;;;9.18;5.10;;;;;;;-0.59;71.94;100816.27;1784003;79;21010;-77
2022/01/09 05:37:50;;;;;;;8.90;5.80;;;;;;;-0.61;71.90;100804.68;1783779;79;22127;-78
2022/01/09 05:40:19;;;;;;;7.35;5.53;;;;;;;-0.62;72.06;100795.27;1783801;79;20885;-79
2022/01/09 05:42:49;;;;;;;5.37;4.62;;;;;;;-0.64;71.95;100801.70;1783868;79;21006;-79
2022/01/09 05:45:17;;;;;;;10.20;4.72;;;;;;;-0.65;72.03;100802.56;1784060;80;20994;-76
2022/01/09 05:47:45;;;;;;;5.58;4.00;;;;;;;-0.66;71.97;100802.59;1783706;79;21452;-78
2022/01/09 05:50:12;;;;;;;5.42;4.20;;;;;;;-0.69;72.03;100802.61;1784057;80;21518;-78
2022/01/09 05:52:39;;;;;;;7.83;4.47;;;;;;;-0.72;72.14;100810.38;1783831;80;20967;-79
2022/01/09 05:55:07;;;;;;;7.47;4.65;;;;;;;-0.72;72.30;100795.78;1783588;80;20908;-78
2022/01/09 05:57:34;;;;;;;7.47;4.42;;;;;;;-0.70;72.43;100795.77;1753615;80;21386;-78
2022/01/09 06:00:01;;;;;;;7.37;5.05;;;;;;;-0.70;72.43;100786.76;1775539;80;20924;-80
2022/01/09 06:02:30;;;;;;;11.12;5.95;;;;;;;-0.67;72.55;100777.29;1775052;80;20932;-79
2022/01/09 06:04:57;;;;;;;9.05;6.53;;;;;;;-0.65;72.52;100781.11;1775580;80;20908;-78
2022/01/09 06:07:23;;;;;;;8.05;5.03;;;;;;;-0.65;72.49;100781.95;1775194;80;20952;-77
2022/01/09 06:09:50;;;;;;;7.62;4.58;;;;;;;-0.64;72.56;100787.55;1775287;80;20916;-77
2022/01/09 06:12:17;;;;;;;7.85;4.90;;;;;;;-0.60;72.59;100783.63;1775263;80;20924;-77
2022/01/09 06:14:45;;;;;;;9.95;6.03;;;;;;;-0.57;72.58;100779.75;1775169;80;21160;-78
2022/01/09 06:17:11;;;;;;;10.95;5.92;;;;;;;-0.56;72.54;100769.41;1775471;80;20837;-79
2022/01/09 06:19:38;;;;;;;9.38;5.12;;;;;;;-0.54;72.65;100768.96;1776560;80;20873;-76
2022/01/09 06:22:05;;;;;;;7.95;4.92;;;;;;;-0.52;72.69;100763.80;1775754;80;20936;-77
2022/01/09 06:24:33;;;;;;;8.95;5.50;;;;;;;-0.49;72.62;100765.04;1775406;80;21354;-78
2022/01/09 06:26:59;;;;;;;6.28;4.65;;;;;;;-0.49;72.65;100767.20;1775231;80;21103;-79
2022/01/09 06:29:26;;;;;;;6.62;4.70;;;;;;;-0.47;72.65;100772.31;1775120;80;20922;-79
2022/01/09 06:31:53;;;;;;;6.37;4.75;;;;;;;-0.47;72.73;100785.20;1775602;80;20976;-79
2022/01/09 06:34:20;;;;;;;8.85;4.95;;;;;;;-0.46;72.86;100783.90;1775526;80;20947;-79
2022/01/09 06:36:46;;;;;;;8.10;5.12;;;;;;;-0.43;72.88;100790.29;1775632;80;20876;-80
2022/01/09 06:39:13;;;;;;;6.95;4.65;;;;;;;-0.38;72.84;100790.67;1775587;80;21852;-78
2022/01/09 06:41:40;;;;;;;6.78;4.87;;;;;;;-0.36;72.83;100782.49;1775568;80;20976;-79
2022/01/09 06:44:09;;;;;;;5.95;4.55;;;;;;;-0.32;72.97;100777.28;1773833;80;20857;-78
2022/01/09 06:46:36;;;;;;;9.15;5.22;;;;;;;-0.27;72.82;100772.94;1775194;80;20928;-78
2022/01/09 06:49:03;;;;;;;8.40;4.60;;;;;;;-0.27;72.72;100764.34;1775510;80;21025;-79
2022/01/09 06:51:30;;;;;;;10.45;5.60;;;;;;;-0.29;72.70;100773.40;1775297;80;21139;-78
2022/01/09 06:53:56;;;;;;;7.33;4.72;;;;;;;-0.31;72.78;100780.30;1776051;80;20881;-80
2022/01/09 06:56:23;;;;;;;10.43;4.90;;;;;;;-0.30;72.92;100772.96;1779005;80;20943;-79
2022/01/09 06:58:50;;;;;;;9.70;6.20;;;;;;;-0.27;72.95;100767.79;1783724;79;20976;-79
2022/01/09 07:01:17;;;;;;;9.25;5.55;;;;;;;-0.26;72.95;100764.33;1784063;79;20861;-79
2022/01/09 07:03:44;;;;;;;13.75;5.75;;;;;;;-0.24;73.19;100766.89;1784122;79;21105;-78
2022/01/09 07:06:11;;;;;;;9.53;5.53;;;;;;;-0.21;73.20;100762.53;1783728;80;20944;-78
2022/01/09 07:08:38;;;;;;;8.75;5.28;;;;;;;-0.19;73.30;100753.95;1783957;80;21393;-78
2022/01/09 07:11:05;;;;;;;12.18;5.50;;;;;;;-0.14;73.30;100745.70;1784161;80;20936;-78
2022/01/09 07:13:33;;;;;;;11.55;6.35;;;;;;;-0.14;73.29;100747.84;1783799;79;20991;-80
2022/01/09 07:15:59;;;;;;;8.13;6.47;;;;;;;-0.16;73.28;100735.84;1783582;79;21139;-80
2022/01/09 07:18:28;;;;;;;10.13;6.22;;;;;;;-0.20;73.59;100740.22;1783586;79;21338;-79
2022/01/09 07:20:55;;;;;;;8.60;5.33;;;;;;;-0.18;73.87;100745.33;1783768;79;20962;-80
2022/01/09 07:23:22;;;;;;;10.10;6.50;;;;;;;-0.17;74.11;100736.30;1784055;80;20972;-79
2022/01/09 07:25:49;;;;;;;10.58;5.70;;;;;;;-0.16;74.34;100734.56;1784134;79;20976;-78
2022/01/09 07:28:16;;;;;;;9.53;5.83;;;;;;;-0.14;74.69;100738.81;1785322;80;21070;-79
2022/01/09 07:30:44;;;;;;;6.47;4.53;;;;;;;-0.12;74.74;100734.94;1783935;79;20912;-79
2022/01/09 07:33:10;;;;;;;9.38;6.60;;;;;;;-0.13;74.90;100725.52;1784135;80;21042;-80
2022/01/09 07:35:37;;;;;;;9.33;6.25;;;;;;;-0.16;74.98;100721.23;1783528;79;20947;-79
2022/01/09 07:38:04;;;;;;;6.37;5.62;;;;;;;-0.17;75.15;100723.85;1784265;79;20975;-78
2022/01/09 07:40:31;;;;;;;9.93;6.60;;;;;;;-0.18;75.28;100716.53;1783719;79;21165;-80
2022/01/09 07:42:58;;;;;;;7.33;5.03;;;;;;;-0.17;75.50;100714.39;1784001;79;20892;-80
2022/01/09 07:45:27;;;;;;;7.62;5.85;;;;;;;-0.14;75.58;100715.62;1784675;79;20888;-78
2022/01/09 07:47:55;;;;;;;6.97;5.37;;;;;;;-0.12;75.59;100715.16;1785109;80;20952;-80
2022/01/09 07:50:22;;;;;;;8.28;5.70;;;;;;;-0.09;75.76;100707.41;1783836;80;20979;-78
2022/01/09 07:52:50;;;;;;;11.53;7.97;;;;;;;-0.07;75.78;100703.50;1784030;79;21102;-81
2022/01/09 07:55:19;;;;;;;8.80;6.90;;;;;;;-0.06;75.90;100702.64;1783642;79;20876;-83
2022/01/09 07:57:46;;;;;;;11.22;6.90;;;;;;;-0.03;76.14;100703.42;1781382;80;20920;-82
2022/01/09 08:00:13;;;;;;;6.85;5.17;;;;;;;0.04;76.17;100700.76;1781031;80;21477;-81
2022/01/09 08:02:44;;;;;;;9.93;5.87;;;;;;;0.05;75.99;100700.75;1781373;80;21473;-82
2022/01/09 08:05:11;;;;;;;10.88;6.35;;;;;;;0.06;75.87;100695.98;1780989;80;21146;-80
2022/01/09 08:10:32;;;;;;;14.65;8.10;;;;;;;0.14;75.87;100693.31;1816501;79;22638;-81
2022/01/09 08:13:00;;;;;;;20.45;13.48;;;;;;;0.15;75.89;100698.86;1789630;80;20907;-83
2022/01/09 08:15:29;;;;;;;10.35;6.80;;;;;;;0.16;75.83;100698.00;1757752;80;20966;-82
2022/01/09 08:17:58;;;;;;;9.70;6.42;;;;;;;0.17;75.81;100690.67;1757840;80;20935;-81
2022/01/09 08:20:27;;;;;;;12.03;6.42;;;;;;;0.16;75.89;100685.11;1757853;81;21580;-82
2022/01/09 08:22:54;;;;;;;6.72;5.55;;;;;;;0.18;75.90;100673.05;1757989;81;21036;-83
2022/01/09 08:25:22;;;;;;;8.30;6.20;;;;;;;0.21;75.98;100674.27;1758059;80;20888;-82
2022/01/09 08:27:49;;;;;;;8.58;6.70;;;;;;;0.23;75.88;100665.23;1757968;80;21150;-81
2022/01/09 08:30:16;;;;;;;8.38;5.95;;;;;;;0.23;75.90;100658.78;1758027;80;20979;-83
2022/01/09 08:32:43;;;;;;;8.48;6.33;;;;;;;0.24;75.82;100665.63;1758184;81;20887;-82
2022/01/09 08:35:13;;;;;;;9.63;5.90;;;;;;;0.23;75.83;100659.62;1758049;80;20876;-83
2022/01/09 08:37:42;;;;;;;10.78;6.83;;;;;;;0.23;75.82;100658.78;1758088;81;21019;-81
2022/01/09 08:40:19;;;;;;;10.53;7.00;;;;;;;0.22;75.86;100646.31;1774348;80;21201;-83
2022/01/09 08:42:44;;;;;;;10.08;6.97;;;;;;;0.24;76.00;100652.29;1789612;80;20868;-81
2022/01/09 08:45:11;;;;;;;12.63;7.35;;;;;;;0.25;75.94;100640.27;1790155;80;20927;-83
2022/01/09 08:47:38;;;;;;;10.43;7.15;;;;;;;0.23;76.09;100641.58;1790130;80;20912;-82
2022/01/09 08:50:06;;;;;;;11.83;7.83;;;;;;;0.23;76.10;100640.73;1789850;80;20979;-83
2022/01/09 08:52:33;;;;;;;14.60;8.58;;;;;;;0.21;76.30;100633.02;1790015;80;21181;-82
2022/01/09 08:55:00;;;;;;;23.12;14.68;;;;;;;0.23;76.36;100630.42;1789737;80;20919;-81
2022/01/09 08:57:27;;;;;;;11.28;8.55;;;;;;;0.25;76.46;100631.25;1790145;79;21377;-82
2022/01/09 08:59:54;;;;;;;12.18;8.40;;;;;;;0.27;76.49;100622.60;1789756;80;20907;-82
2022/01/09 09:02:21;;;;;;;13.20;8.38;;;;;;;0.29;76.50;100623.43;1790762;80;20930;-81
2022/01/09 09:04:48;;;;;;;14.93;8.88;;;;;;;0.34;76.55;100615.61;1790290;80;21160;-85
2022/01/09 09:07:18;;;;;;;15.50;8.55;;;;;;;0.37;76.54;100619.41;1790255;79;20975;-80
2022/01/09 09:09:43;;;;;;;14.68;7.80;;;;;;;0.41;76.46;100615.45;1786528;80;20856;-82
2022/01/09 09:12:12;;;;;;;12.28;8.00;;;;;;;0.42;76.37;100611.14;1785650;80;20924;-79
2022/01/09 09:14:40;;;;;;;14.40;8.83;;;;;;;0.43;76.36;100608.98;1786751;80;20975;-83
2022/01/09 09:17:07;;;;;;;18.15;8.80;;;;;;;0.45;76.37;100597.36;1784949;80;21461;-83
2022/01/09 09:19:35;;;;;;;17.30;10.53;;;;;;;0.46;76.30;100590.02;1784784;80;21014;-82
2022/01/09 09:22:02;;;;;;;15.68;9.73;;;;;;;0.43;76.45;100584.48;1784096;80;21703;-82
2022/01/09 09:24:29;;;;;;;12.43;7.85;;;;;;;0.45;76.58;100572.84;1784298;80;21062;-83
2022/01/09 09:26:56;;;;;;;14.10;8.53;;;;;;;0.48;76.53;100575.36;1784025;80;21026;-83
2022/01/09 09:29:23;;;;;;;14.75;9.40;;;;;;;0.48;76.55;100577.94;1783956;80;21996;-81
2022/01/09 09:31:50;;;;;;;15.05;9.23;;;;;;;0.50;76.72;100565.41;1783789;80;20880;-79
2022/01/09 09:34:16;;;;;;;14.58;10.13;;;;;;;0.58;76.88;100571.73;1784258;80;20987;-80
2022/01/09 09:36:44;;;;;;;12.88;8.65;;;;;;;0.61;76.68;100562.19;1783932;80;20932;-80
2022/01/09 09:39:12;;;;;;;12.13;8.48;;;;;;;0.65;76.64;100564.27;1784163;80;20860;-80
2022/01/09 09:41:41;;;;;;;14.58;8.58;;;;;;;0.66;76.70;100563.38;1783787;80;21173;-78
2022/01/09 09:44:09;;;;;;;13.88;8.13;;;;;;;0.70;76.54;100552.56;1783703;80;21454;-81
2022/01/09 09:46:37;;;;;;;12.98;9.33;;;;;;;0.72;76.43;100556.81;1783759;80;21492;-82
2022/01/09 09:49:04;;;;;;;17.15;11.12;;;;;;;0.68;76.56;100551.75;1784145;80;20975;-83
2022/01/09 09:51:32;;;;;;;16.45;11.08;;;;;;;0.66;76.67;100546.61;1784168;80;20849;-80
2022/01/09 09:53:58;;;;;;;18.70;10.90;;;;;;;0.65;76.83;100544.92;1784178;80;21087;-81
2022/01/09 09:56:25;;;;;;;20.20;11.80;;;;;;;0.68;76.77;100536.26;1784257;80;21010;-81
2022/01/09 09:58:52;;;;;;;14.10;10.35;;;;;;;0.66;76.92;100540.60;1784167;80;20860;-82
2022/01/09 10:01:36;;;;;;;12.07;8.80;;;;;;;0.66;76.92;100541.45;1783940;80;20880;-81
2022/01/09 10:04:06;;;;;;;14.87;10.32;;;;;;;0.65;76.95;100543.62;1783790;80;21471;-81
2022/01/09 10:06:43;;;;;;;16.37;10.38;;;;;;;0.68;77.15;100533.23;1783803;80;21798;-80
2022/01/09 10:09:19;;;;;;;15.58;10.55;;;;;;;0.69;77.21;100532.37;1781081;80;20932;-85
2022/01/09 10:11:50;;;;;;;15.70;10.48;;;;;;;0.67;77.29;100522.52;1775115;80;20987;-80
2022/01/09 10:14:24;;;;;;;17.35;11.22;;;;;;;0.70;77.43;100525.02;1775565;80;20893;-77
2022/01/09 10:17:13;;;;;;;18.02;12.33;;;;;;;0.72;77.42;100510.36;1775233;80;20893;-77
2022/01/09 10:19:50;;;;;;;16.82;10.63;;;;;;;0.73;77.41;100503.01;1775313;80;21159;-77
2022/01/09 10:22:44;;;;;;;18.12;11.22;;;;;;;0.73;77.42;100498.30;1775236;80;21019;-83
2022/01/09 10:25:36;;;;;;;16.82;11.60;;;;;;;0.74;77.56;100493.56;1775182;80;20845;-79
2022/01/09 10:28:14;;;;;;;16.12;11.05;;;;;;;0.77;77.68;100491.73;1775490;80;21186;-79
2022/01/09 10:30:51;;;;;;;15.75;10.85;;;;;;;0.82;77.87;100483.89;1775290;80;20904;-81
2022/01/09 10:33:30;;;;;;;18.50;11.28;;;;;;;0.86;77.74;100482.95;1775310;80;21805;-79
2022/01/09 10:35:58;;;;;;;16.75;10.72;;;;;;;0.91;77.71;100488.00;1775192;80;20944;-77
2022/01/09 10:38:27;;;;;;;18.30;11.20;;;;;;;0.96;77.69;100479.29;1775266;80;20975;-77
2022/01/09 10:41:00;;;;;;;17.57;10.93;;;;;;;0.99;77.66;100481.79;1754661;80;20909;-77
2022/01/09 10:43:41;;;;;;;18.87;11.15;;;;;;;1.00;77.65;100479.62;1776039;80;21050;-77
2022/01/09 10:46:08;;;;;;;19.57;11.10;;;;;;;1.02;77.66;100474.41;1755571;80;21425;-77
2022/01/09 10:48:39;;;;;;;18.00;11.93;;;;;;;1.06;77.68;100472.62;1775101;80;21533;-75
2022/01/09 10:51:08;;;;;;;20.30;12.07;;;;;;;1.11;77.53;100466.89;1775249;80;20984;-76
2022/01/09 10:53:39;;;;;;;17.60;12.37;;;;;;;1.13;77.52;100464.67;1776246;80;20980;-83
2022/01/09 10:56:24;;;;;;;18.37;12.18;;;;;;;1.15;77.60;100464.20;1778793;80;21078;-81
2022/01/09 10:58:57;;;;;;;18.17;12.07;;;;;;;1.21;77.88;100456.31;1778389;79;21473;-80
2022/01/09 11:01:28;;;;;;;18.90;12.37;;;;;;;1.30;77.79;100465.58;1778323;80;20963;-74
2022/01/09 11:04:06;;;;;;;20.68;14.90;;;;;;;1.36;77.51;100456.84;1778027;79;20963;-75
2022/01/09 11:06:43;;;;;;;16.70;12.10;;;;;;;1.37;77.43;100454.65;1777717;79;20983;-77
2022/01/09 11:09:06;;;;;;;18.98;12.03;;;;;;;1.37;77.35;100452.91;1777306;79;20944;-77
2022/01/09 11:11:38;;;;;;;19.90;13.18;;;;;;;1.38;77.37;100447.29;1785526;78;21091;-76
2022/01/09 11:14:07;;;;;;;19.35;12.80;;;;;;;1.40;77.49;100449.39;1785834;79;20888;-77
2022/01/09 11:16:42;;;;;;;20.12;13.90;;;;;;;1.42;77.66;100445.04;1786421;78;20916;-75
2022/01/09 11:19:11;;;;;;;20.37;13.80;;;;;;;1.48;77.74;100443.59;1784532;79;20943;-77
2022/01/09 11:21:55;;;;;;;21.62;14.85;;;;;;;1.54;77.60;100448.62;1785909;80;20951;-76
2022/01/09 11:25:13;;;;;;;24.95;15.83;;;;;;;1.58;77.64;100442.91;1786979;79;21047;-77
2022/01/09 11:27:57;;;;;;;22.75;13.78;;;;;;;1.61;77.53;100446.27;1786602;78;20908;-77
2022/01/09 11:31:01;;;;;;;17.90;12.75;;;;;;;1.66;77.38;100443.57;1787207;79;20904;-75
2022/01/09 11:34:06;;;;;;;23.83;14.00;;;;;;;1.68;77.44;100437.08;1786653;79;20947;-78